sensor_id;sensor_type;location;lat;lon;timestamp;temperature;humidity
16999;DHT22;10211;49.476;11.010;2023-06-05T00:00:49;13.80;75.50
16999;DHT22;10211;49.476;11.010;2023-06-05T00:03:17;13.80;75.70
16999;DHT22;10211;49.476;11.010;2023-06-05T00:05:44;13.70;75.70
16999;DHT22;10211;49.476;11.010;2023-06-05T00:08:10;13.70;76.60
16999;DHT22;10211;49.476;11.010;2023-06-05T00:10:37;13.70;76.80
16999;DHT22;10211;49.476;11.010;2023-06-05T00:13:04;13.60;77.30
16999;DHT22;10211;49.476;11.010;2023-06-05T00:15:31;13.60;77.70
16999;DHT22;10211;49.476;11.010;2023-06-05T00:18:01;13.50;77.80
16999;DHT22;10211;49.476;11.010;2023-06-05T00:20:29;13.50;78.00
16999;DHT22;10211;49.476;11.010;2023-06-05T00:22:55;13.40;78.20
16999;DHT22;10211;49.476;11.010;2023-06-05T00:25:22;13.40;78.70
16999;DHT22;10211;49.476;11.010;2023-06-05T00:27:49;13.30;79.10
16999;DHT22;10211;49.476;11.010;2023-06-05T00:30:15;13.30;79.50
16999;DHT22;10211;49.476;11.010;2023-06-05T00:32:42;13.20;79.70
16999;DHT22;10211;49.476;11.010;2023-06-05T00:35:09;13.20;80.20
16999;DHT22;10211;49.476;11.010;2023-06-05T00:37:37;13.10;80.20
16999;DHT22;10211;49.476;11.010;2023-06-05T00:40:04;13.10;80.90
16999;DHT22;10211;49.476;11.010;2023-06-05T00:42:31;13.10;80.90
16999;DHT22;10211;49.476;11.010;2023-06-05T00:44:58;13.00;81.00
16999;DHT22;10211;49.476;11.010;2023-06-05T00:47:25;13.00;81.50
16999;DHT22;10211;49.476;11.010;2023-06-05T00:49:51;12.90;82.00
16999;DHT22;10211;49.476;11.010;2023-06-05T00:52:19;12.90;82.00
16999;DHT22;10211;49.476;11.010;2023-06-05T00:54:48;12.90;82.20
16999;DHT22;10211;49.476;11.010;2023-06-05T00:57:14;12.80;82.30
16999;DHT22;10211;49.476;11.010;2023-06-05T00:59:41;12.80;82.80
16999;DHT22;10211;49.476;11.010;2023-06-05T01:02:10;12.70;83.40
16999;DHT22;10211;49.476;11.010;2023-06-05T01:04:38;12.70;83.00
16999;DHT22;10211;49.476;11.010;2023-06-05T01:07:06;12.70;83.60
16999;DHT22;10211;49.476;11.010;2023-06-05T01:09:34;12.60;83.40
16999;DHT22;10211;49.476;11.010;2023-06-05T01:12:07;12.60;83.90
16999;DHT22;10211;49.476;11.010;2023-06-05T01:14:35;12.60;84.50
16999;DHT22;10211;49.476;11.010;2023-06-05T01:17:07;12.50;84.60
16999;DHT22;10211;49.476;11.010;2023-06-05T01:19:34;12.50;84.80
16999;DHT22;10211;49.476;11.010;2023-06-05T01:22:01;12.40;85.40
16999;DHT22;10211;49.476;11.010;2023-06-05T01:24:29;12.40;86.00
16999;DHT22;10211;49.476;11.010;2023-06-05T01:27:03;12.40;85.60
16999;DHT22;10211;49.476;11.010;2023-06-05T01:29:37;12.40;85.30
16999;DHT22;10211;49.476;11.010;2023-06-05T01:32:07;12.40;85.10
16999;DHT22;10211;49.476;11.010;2023-06-05T01:34:37;12.40;85.20
16999;DHT22;10211;49.476;11.010;2023-06-05T01:37:09;12.40;85.40
16999;DHT22;10211;49.476;11.010;2023-06-05T01:39:40;12.40;85.40
16999;DHT22;10211;49.476;11.010;2023-06-05T01:42:08;12.30;85.50
16999;DHT22;10211;49.476;11.010;2023-06-05T01:44:35;12.30;85.40
16999;DHT22;10211;49.476;11.010;2023-06-05T01:47:04;12.30;85.60
16999;DHT22;10211;49.476;11.010;2023-06-05T01:49:31;12.20;86.00
16999;DHT22;10211;49.476;11.010;2023-06-05T01:51:58;12.20;86.20
16999;DHT22;10211;49.476;11.010;2023-06-05T01:54:25;12.20;86.40
16999;DHT22;10211;49.476;11.010;2023-06-05T01:56:53;12.40;86.90
16999;DHT22;10211;49.476;11.010;2023-06-05T01:59:20;12.10;87.00
16999;DHT22;10211;49.476;11.010;2023-06-05T02:01:47;12.10;87.40
16999;DHT22;10211;49.476;11.010;2023-06-05T02:04:14;12.00;87.40
16999;DHT22;10211;49.476;11.010;2023-06-05T02:06:44;12.00;87.60
16999;DHT22;10211;49.476;11.010;2023-06-05T02:09:11;12.00;87.60
16999;DHT22;10211;49.476;11.010;2023-06-05T02:11:39;12.00;87.90
16999;DHT22;10211;49.476;11.010;2023-06-05T02:14:09;12.00;88.20
16999;DHT22;10211;49.476;11.010;2023-06-05T02:16:39;11.90;88.20
16999;DHT22;10211;49.476;11.010;2023-06-05T02:19:06;11.90;88.20
16999;DHT22;10211;49.476;11.010;2023-06-05T02:21:33;11.80;88.90
16999;DHT22;10211;49.476;11.010;2023-06-05T02:24:00;11.80;89.00
16999;DHT22;10211;49.476;11.010;2023-06-05T02:26:28;11.80;89.20
16999;DHT22;10211;49.476;11.010;2023-06-05T02:28:55;11.80;89.40
16999;DHT22;10211;49.476;11.010;2023-06-05T02:31:24;11.80;89.50
16999;DHT22;10211;49.476;11.010;2023-06-05T02:33:54;11.70;89.50
16999;DHT22;10211;49.476;11.010;2023-06-05T02:36:22;11.70;89.40
16999;DHT22;10211;49.476;11.010;2023-06-05T02:38:49;11.70;89.60
16999;DHT22;10211;49.476;11.010;2023-06-05T02:41:16;11.70;89.60
16999;DHT22;10211;49.476;11.010;2023-06-05T02:43:43;11.70;89.90
16999;DHT22;10211;49.476;11.010;2023-06-05T02:46:10;11.60;89.90
16999;DHT22;10211;49.476;11.010;2023-06-05T02:48:38;11.60;90.00
16999;DHT22;10211;49.476;11.010;2023-06-05T02:51:05;11.60;90.10
16999;DHT22;10211;49.476;11.010;2023-06-05T02:53:32;11.60;90.10
16999;DHT22;10211;49.476;11.010;2023-06-05T02:55:59;11.60;90.20
16999;DHT22;10211;49.476;11.010;2023-06-05T02:58:27;11.50;90.20
16999;DHT22;10211;49.476;11.010;2023-06-05T03:00:53;11.50;90.20
16999;DHT22;10211;49.476;11.010;2023-06-05T03:03:21;11.50;90.30
16999;DHT22;10211;49.476;11.010;2023-06-05T03:05:52;11.50;90.50
16999;DHT22;10211;49.476;11.010;2023-06-05T03:08:19;11.50;90.40
16999;DHT22;10211;49.476;11.010;2023-06-05T03:10:46;11.50;90.50
16999;DHT22;10211;49.476;11.010;2023-06-05T03:13:12;11.50;90.50
16999;DHT22;10211;49.476;11.010;2023-06-05T03:15:39;11.50;90.50
16999;DHT22;10211;49.476;11.010;2023-06-05T03:18:07;11.50;90.70
16999;DHT22;10211;49.476;11.010;2023-06-05T03:20:34;11.40;90.70
16999;DHT22;10211;49.476;11.010;2023-06-05T03:23:03;11.40;90.70
16999;DHT22;10211;49.476;11.010;2023-06-05T03:25:29;11.40;90.80
16999;DHT22;10211;49.476;11.010;2023-06-05T03:27:56;11.40;90.90
16999;DHT22;10211;49.476;11.010;2023-06-05T03:30:22;11.40;90.80
16999;DHT22;10211;49.476;11.010;2023-06-05T03:32:49;11.40;91.00
16999;DHT22;10211;49.476;11.010;2023-06-05T03:35:16;11.40;90.90
16999;DHT22;10211;49.476;11.010;2023-06-05T03:37:43;11.50;90.90
16999;DHT22;10211;49.476;11.010;2023-06-05T03:40:12;11.40;90.90
16999;DHT22;10211;49.476;11.010;2023-06-05T03:42:39;11.50;91.00
16999;DHT22;10211;49.476;11.010;2023-06-05T03:45:06;11.40;91.10
16999;DHT22;10211;49.476;11.010;2023-06-05T03:47:34;11.50;91.10
16999;DHT22;10211;49.476;11.010;2023-06-05T03:50:01;11.50;91.30
16999;DHT22;10211;49.476;11.010;2023-06-05T03:52:28;11.50;91.20
16999;DHT22;10211;49.476;11.010;2023-06-05T03:54:54;11.50;91.30
16999;DHT22;10211;49.476;11.010;2023-06-05T03:57:22;11.50;91.40
16999;DHT22;10211;49.476;11.010;2023-06-05T03:59:49;11.50;91.60
16999;DHT22;10211;49.476;11.010;2023-06-05T04:02:16;11.60;91.20
16999;DHT22;10211;49.476;11.010;2023-06-05T04:04:43;11.60;91.20
16999;DHT22;10211;49.476;11.010;2023-06-05T04:07:09;11.60;91.20
16999;DHT22;10211;49.476;11.010;2023-06-05T04:09:36;11.70;91.40
16999;DHT22;10211;49.476;11.010;2023-06-05T04:12:03;11.70;91.10
16999;DHT22;10211;49.476;11.010;2023-06-05T04:14:32;11.80;91.30
16999;DHT22;10211;49.476;11.010;2023-06-05T04:16:58;11.80;91.10
16999;DHT22;10211;49.476;11.010;2023-06-05T04:19:25;11.90;91.10
16999;DHT22;10211;49.476;11.010;2023-06-05T04:21:52;11.90;91.20
16999;DHT22;10211;49.476;11.010;2023-06-05T04:24:18;12.00;91.10
16999;DHT22;10211;49.476;11.010;2023-06-05T04:26:45;12.00;91.20
16999;DHT22;10211;49.476;11.010;2023-06-05T04:29:13;12.10;91.20
16999;DHT22;10211;49.476;11.010;2023-06-05T04:31:43;12.20;91.20
16999;DHT22;10211;49.476;11.010;2023-06-05T04:34:10;12.20;91.10
16999;DHT22;10211;49.476;11.010;2023-06-05T04:36:37;12.30;91.00
16999;DHT22;10211;49.476;11.010;2023-06-05T04:39:04;12.40;91.00
16999;DHT22;10211;49.476;11.010;2023-06-05T04:41:36;12.50;90.90
16999;DHT22;10211;49.476;11.010;2023-06-05T04:44:10;12.50;90.90
16999;DHT22;10211;49.476;11.010;2023-06-05T04:46:37;12.60;90.90
16999;DHT22;10211;49.476;11.010;2023-06-05T04:49:06;12.70;90.80
16999;DHT22;10211;49.476;11.010;2023-06-05T04:51:32;12.80;90.80
16999;DHT22;10211;49.476;11.010;2023-06-05T04:53:59;12.80;90.70
16999;DHT22;10211;49.476;11.010;2023-06-05T04:56:26;12.90;90.60
16999;DHT22;10211;49.476;11.010;2023-06-05T04:58:53;12.90;90.40
16999;DHT22;10211;49.476;11.010;2023-06-05T05:01:20;13.00;90.40
16999;DHT22;10211;49.476;11.010;2023-06-05T05:03:47;13.00;90.40
16999;DHT22;10211;49.476;11.010;2023-06-05T05:06:16;13.10;90.40
16999;DHT22;10211;49.476;11.010;2023-06-05T05:08:42;13.20;90.40
16999;DHT22;10211;49.476;11.010;2023-06-05T05:11:11;13.40;90.30
16999;DHT22;10211;49.476;11.010;2023-06-05T05:13:38;13.50;90.20
16999;DHT22;10211;49.476;11.010;2023-06-05T05:16:04;13.70;90.10
16999;DHT22;10211;49.476;11.010;2023-06-05T05:18:33;13.90;90.00
16999;DHT22;10211;49.476;11.010;2023-06-05T05:20:59;14.10;89.50
16999;DHT22;10211;49.476;11.010;2023-06-05T05:23:29;14.40;88.40
16999;DHT22;10211;49.476;11.010;2023-06-05T05:25:55;14.90;87.60
16999;DHT22;10211;49.476;11.010;2023-06-05T05:28:22;15.50;86.10
16999;DHT22;10211;49.476;11.010;2023-06-05T05:30:49;15.90;84.80
16999;DHT22;10211;49.476;11.010;2023-06-05T05:33:16;16.10;84.20
16999;DHT22;10211;49.476;11.010;2023-06-05T05:35:44;16.50;81.90
16999;DHT22;10211;49.476;11.010;2023-06-05T05:38:10;17.50;79.80
16999;DHT22;10211;49.476;11.010;2023-06-05T05:40:38;19.10;76.20
16999;DHT22;10211;49.476;11.010;2023-06-05T05:43:05;20.10;72.10
16999;DHT22;10211;49.476;11.010;2023-06-05T05:45:32;20.30;70.00
16999;DHT22;10211;49.476;11.010;2023-06-05T05:47:58;20.50;67.00
16999;DHT22;10211;49.476;11.010;2023-06-05T05:50:25;20.60;66.30
16999;DHT22;10211;49.476;11.010;2023-06-05T05:52:52;21.00;64.70
16999;DHT22;10211;49.476;11.010;2023-06-05T05:55:18;21.30;64.20
16999;DHT22;10211;49.476;11.010;2023-06-05T05:57:46;21.60;63.70
16999;DHT22;10211;49.476;11.010;2023-06-05T06:00:14;21.60;62.90
16999;DHT22;10211;49.476;11.010;2023-06-05T06:02:41;21.40;63.50
16999;DHT22;10211;49.476;11.010;2023-06-05T06:05:08;20.80;64.00
16999;DHT22;10211;49.476;11.010;2023-06-05T06:07:35;20.70;65.20
16999;DHT22;10211;49.476;11.010;2023-06-05T06:10:02;21.70;64.50
16999;DHT22;10211;49.476;11.010;2023-06-05T06:12:29;23.50;59.90
16999;DHT22;10211;49.476;11.010;2023-06-05T06:14:57;25.00;56.70
16999;DHT22;10211;49.476;11.010;2023-06-05T06:17:23;25.60;55.70
16999;DHT22;10211;49.476;11.010;2023-06-05T06:19:50;25.20;54.20
16999;DHT22;10211;49.476;11.010;2023-06-05T06:22:18;24.70;55.10
16999;DHT22;10211;49.476;11.010;2023-06-05T06:24:45;23.70;55.90
16999;DHT22;10211;49.476;11.010;2023-06-05T06:27:12;22.70;57.90
16999;DHT22;10211;49.476;11.010;2023-06-05T06:29:47;22.10;59.40
16999;DHT22;10211;49.476;11.010;2023-06-05T06:32:16;22.00;61.10
16999;DHT22;10211;49.476;11.010;2023-06-05T06:34:42;21.90;61.30
16999;DHT22;10211;49.476;11.010;2023-06-05T06:37:10;21.60;62.00
16999;DHT22;10211;49.476;11.010;2023-06-05T06:39:37;21.10;63.10
16999;DHT22;10211;49.476;11.010;2023-06-05T06:42:04;20.70;64.50
16999;DHT22;10211;49.476;11.010;2023-06-05T06:44:30;20.30;65.20
16999;DHT22;10211;49.476;11.010;2023-06-05T06:46:57;20.30;65.50
16999;DHT22;10211;49.476;11.010;2023-06-05T06:49:25;20.20;66.20
16999;DHT22;10211;49.476;11.010;2023-06-05T06:51:52;20.10;66.50
16999;DHT22;10211;49.476;11.010;2023-06-05T06:54:19;20.00;66.80
16999;DHT22;10211;49.476;11.010;2023-06-05T06:56:47;19.80;67.20
16999;DHT22;10211;49.476;11.010;2023-06-05T06:59:15;19.70;67.80
16999;DHT22;10211;49.476;11.010;2023-06-05T07:01:44;19.70;68.50
16999;DHT22;10211;49.476;11.010;2023-06-05T07:04:12;19.90;68.00
16999;DHT22;10211;49.476;11.010;2023-06-05T07:06:43;20.20;67.50
16999;DHT22;10211;49.476;11.010;2023-06-05T07:09:10;20.30;67.60
16999;DHT22;10211;49.476;11.010;2023-06-05T07:11:37;20.30;67.60
16999;DHT22;10211;49.476;11.010;2023-06-05T07:14:04;20.50;67.90
16999;DHT22;10211;49.476;11.010;2023-06-05T07:16:31;20.60;67.40
16999;DHT22;10211;49.476;11.010;2023-06-05T07:18:57;20.70;67.60
16999;DHT22;10211;49.476;11.010;2023-06-05T07:21:24;20.90;67.20
16999;DHT22;10211;49.476;11.010;2023-06-05T07:23:53;21.10;67.20
16999;DHT22;10211;49.476;11.010;2023-06-05T07:26:20;21.40;66.80
16999;DHT22;10211;49.476;11.010;2023-06-05T07:28:49;21.60;67.10
16999;DHT22;10211;49.476;11.010;2023-06-05T07:31:16;21.50;66.80
16999;DHT22;10211;49.476;11.010;2023-06-05T07:33:43;21.50;67.40
16999;DHT22;10211;49.476;11.010;2023-06-05T07:36:10;21.50;67.80
16999;DHT22;10211;49.476;11.010;2023-06-05T07:38:36;21.60;68.20
16999;DHT22;10211;49.476;11.010;2023-06-05T07:41:06;21.60;69.00
16999;DHT22;10211;49.476;11.010;2023-06-05T07:43:32;21.60;69.50
16999;DHT22;10211;49.476;11.010;2023-06-05T07:45:59;21.70;69.90
16999;DHT22;10211;49.476;11.010;2023-06-05T07:48:26;21.80;70.30
16999;DHT22;10211;49.476;11.010;2023-06-05T07:50:52;22.20;69.50
16999;DHT22;10211;49.476;11.010;2023-06-05T07:53:19;22.50;68.70
16999;DHT22;10211;49.476;11.010;2023-06-05T07:55:47;22.50;68.10
16999;DHT22;10211;49.476;11.010;2023-06-05T07:58:15;22.50;67.60
16999;DHT22;10211;49.476;11.010;2023-06-05T08:00:42;22.40;67.50
16999;DHT22;10211;49.476;11.010;2023-06-05T08:03:13;22.30;68.10
16999;DHT22;10211;49.476;11.010;2023-06-05T08:05:45;22.20;68.30
16999;DHT22;10211;49.476;11.010;2023-06-05T08:08:12;22.30;69.10
16999;DHT22;10211;49.476;11.010;2023-06-05T08:10:39;22.30;67.90
16999;DHT22;10211;49.476;11.010;2023-06-05T08:13:07;22.40;69.00
16999;DHT22;10211;49.476;11.010;2023-06-05T08:15:35;22.40;68.40
16999;DHT22;10211;49.476;11.010;2023-06-05T08:18:02;22.40;68.00
16999;DHT22;10211;49.476;11.010;2023-06-05T08:20:29;22.50;68.50
16999;DHT22;10211;49.476;11.010;2023-06-05T08:22:55;22.60;68.80
16999;DHT22;10211;49.476;11.010;2023-06-05T08:25:23;22.80;68.60
16999;DHT22;10211;49.476;11.010;2023-06-05T08:27:50;23.00;67.10
16999;DHT22;10211;49.476;11.010;2023-06-05T08:30:17;23.00;66.60
16999;DHT22;10211;49.476;11.010;2023-06-05T08:32:45;23.00;66.50
16999;DHT22;10211;49.476;11.010;2023-06-05T08:35:12;23.10;66.50
16999;DHT22;10211;49.476;11.010;2023-06-05T08:37:39;23.10;66.80
16999;DHT22;10211;49.476;11.010;2023-06-05T08:40:06;23.10;66.50
16999;DHT22;10211;49.476;11.010;2023-06-05T08:42:36;23.20;67.70
16999;DHT22;10211;49.476;11.010;2023-06-05T08:45:03;23.20;66.60
16999;DHT22;10211;49.476;11.010;2023-06-05T08:47:30;23.20;66.50
16999;DHT22;10211;49.476;11.010;2023-06-05T08:50:02;23.20;65.80
16999;DHT22;10211;49.476;11.010;2023-06-05T08:52:32;23.30;65.90
16999;DHT22;10211;49.476;11.010;2023-06-05T08:55:00;23.30;65.90
16999;DHT22;10211;49.476;11.010;2023-06-05T08:57:28;23.30;65.80
16999;DHT22;10211;49.476;11.010;2023-06-05T08:59:54;23.30;66.20
16999;DHT22;10211;49.476;11.010;2023-06-05T09:02:22;23.40;66.60
16999;DHT22;10211;49.476;11.010;2023-06-05T09:04:48;23.50;66.40
16999;DHT22;10211;49.476;11.010;2023-06-05T09:07:16;23.50;66.20
16999;DHT22;10211;49.476;11.010;2023-06-05T09:09:44;23.60;67.20
16999;DHT22;10211;49.476;11.010;2023-06-05T09:12:11;23.60;67.10
16999;DHT22;10211;49.476;11.010;2023-06-05T09:14:38;23.70;66.50
16999;DHT22;10211;49.476;11.010;2023-06-05T09:17:12;23.80;67.00
16999;DHT22;10211;49.476;11.010;2023-06-05T09:19:40;24.00;66.20
16999;DHT22;10211;49.476;11.010;2023-06-05T09:22:09;24.20;65.70
16999;DHT22;10211;49.476;11.010;2023-06-05T09:24:38;24.30;65.90
16999;DHT22;10211;49.476;11.010;2023-06-05T09:27:07;24.30;65.10
16999;DHT22;10211;49.476;11.010;2023-06-05T09:29:35;24.40;65.00
16999;DHT22;10211;49.476;11.010;2023-06-05T09:32:05;24.40;66.00
16999;DHT22;10211;49.476;11.010;2023-06-05T09:34:32;24.50;65.40
16999;DHT22;10211;49.476;11.010;2023-06-05T09:37:02;24.60;65.80
16999;DHT22;10211;49.476;11.010;2023-06-05T09:39:30;24.80;65.40
16999;DHT22;10211;49.476;11.010;2023-06-05T09:41:59;25.30;65.30
16999;DHT22;10211;49.476;11.010;2023-06-05T09:44:27;26.20;63.40
16999;DHT22;10211;49.476;11.010;2023-06-05T09:46:56;27.60;61.30
16999;DHT22;10211;49.476;11.010;2023-06-05T09:49:25;29.30;58.40
16999;DHT22;10211;49.476;11.010;2023-06-05T09:51:52;30.70;55.90
16999;DHT22;10211;49.476;11.010;2023-06-05T09:54:20;32.80;52.00
16999;DHT22;10211;49.476;11.010;2023-06-05T09:56:48;33.10;50.60
16999;DHT22;10211;49.476;11.010;2023-06-05T09:59:19;32.70;50.70
16999;DHT22;10211;49.476;11.010;2023-06-05T10:01:49;33.00;50.20
16999;DHT22;10211;49.476;11.010;2023-06-05T10:04:18;34.80;48.80
16999;DHT22;10211;49.476;11.010;2023-06-05T10:06:46;37.10;45.40
16999;DHT22;10211;49.476;11.010;2023-06-05T10:09:14;37.10;44.20
16999;DHT22;10211;49.476;11.010;2023-06-05T10:11:41;38.40;43.10
16999;DHT22;10211;49.476;11.010;2023-06-05T10:14:09;40.10;41.50
16999;DHT22;10211;49.476;11.010;2023-06-05T10:16:38;42.20;39.40
16999;DHT22;10211;49.476;11.010;2023-06-05T10:19:06;44.00;37.60
16999;DHT22;10211;49.476;11.010;2023-06-05T10:21:33;43.10;36.50
16999;DHT22;10211;49.476;11.010;2023-06-05T10:24:04;43.00;36.90
16999;DHT22;10211;49.476;11.010;2023-06-05T10:26:52;44.50;35.60
16999;DHT22;10211;49.476;11.010;2023-06-05T10:29:39;45.90;34.70
16999;DHT22;10211;49.476;11.010;2023-06-05T10:32:20;46.80;33.10
16999;DHT22;10211;49.476;11.010;2023-06-05T10:34:55;47.00;32.80
16999;DHT22;10211;49.476;11.010;2023-06-05T10:37:33;47.60;32.40
16999;DHT22;10211;49.476;11.010;2023-06-05T10:40:05;48.10;31.80
16999;DHT22;10211;49.476;11.010;2023-06-05T10:42:34;48.00;31.90
16999;DHT22;10211;49.476;11.010;2023-06-05T10:45:03;48.50;31.70
16999;DHT22;10211;49.476;11.010;2023-06-05T10:47:51;48.50;31.20
16999;DHT22;10211;49.476;11.010;2023-06-05T10:50:28;48.70;30.20
16999;DHT22;10211;49.476;11.010;2023-06-05T10:52:57;47.90;30.80
16999;DHT22;10211;49.476;11.010;2023-06-05T10:55:26;45.00;32.20
16999;DHT22;10211;49.476;11.010;2023-06-05T10:58:06;42.00;35.20
16999;DHT22;10211;49.476;11.010;2023-06-05T11:00:36;41.90;35.70
16999;DHT22;10211;49.476;11.010;2023-06-05T11:03:04;42.80;35.10
16999;DHT22;10211;49.476;11.010;2023-06-05T11:05:32;44.00;34.50
16999;DHT22;10211;49.476;11.010;2023-06-05T11:08:15;44.90;33.20
16999;DHT22;10211;49.476;11.010;2023-06-05T11:11:02;43.50;34.00
16999;DHT22;10211;49.476;11.010;2023-06-05T11:13:53;41.20;36.00
16999;DHT22;10211;49.476;11.010;2023-06-05T11:16:31;40.60;37.30
16999;DHT22;10211;49.476;11.010;2023-06-05T11:19:36;40.80;36.50
16999;DHT22;10211;49.476;11.010;2023-06-05T11:22:10;40.70;36.90
16999;DHT22;10211;49.476;11.010;2023-06-05T11:24:37;39.50;37.40
16999;DHT22;10211;49.476;11.010;2023-06-05T11:27:05;38.80;38.70
16999;DHT22;10211;49.476;11.010;2023-06-05T11:29:34;39.70;37.70
16999;DHT22;10211;49.476;11.010;2023-06-05T11:32:11;40.60;37.50
16999;DHT22;10211;49.476;11.010;2023-06-05T11:34:40;41.00;36.40
16999;DHT22;10211;49.476;11.010;2023-06-05T11:37:15;40.70;37.10
16999;DHT22;10211;49.476;11.010;2023-06-05T11:39:43;40.60;36.90
16999;DHT22;10211;49.476;11.010;2023-06-05T11:42:10;41.30;36.70
16999;DHT22;10211;49.476;11.010;2023-06-05T11:44:36;42.30;36.00
16999;DHT22;10211;49.476;11.010;2023-06-05T11:47:03;41.10;36.30
16999;DHT22;10211;49.476;11.010;2023-06-05T11:49:30;39.20;37.90
16999;DHT22;10211;49.476;11.010;2023-06-05T11:51:58;37.40;40.60
16999;DHT22;10211;49.476;11.010;2023-06-05T11:54:27;35.20;42.40
16999;DHT22;10211;49.476;11.010;2023-06-05T11:56:57;34.80;43.50
16999;DHT22;10211;49.476;11.010;2023-06-05T11:59:24;36.30;43.10
16999;DHT22;10211;49.476;11.010;2023-06-05T12:01:51;38.30;40.10
16999;DHT22;10211;49.476;11.010;2023-06-05T12:04:19;39.30;38.90
16999;DHT22;10211;49.476;11.010;2023-06-05T12:06:47;39.70;39.30
16999;DHT22;10211;49.476;11.010;2023-06-05T12:09:15;39.60;38.50
16999;DHT22;10211;49.476;11.010;2023-06-05T12:11:43;37.90;40.00
16999;DHT22;10211;49.476;11.010;2023-06-05T12:14:11;36.10;41.40
16999;DHT22;10211;49.476;11.010;2023-06-05T12:16:39;34.40;43.60
16999;DHT22;10211;49.476;11.010;2023-06-05T12:19:12;33.40;45.60
16999;DHT22;10211;49.476;11.010;2023-06-05T12:21:39;33.60;45.70
16999;DHT22;10211;49.476;11.010;2023-06-05T12:24:06;33.60;46.40
16999;DHT22;10211;49.476;11.010;2023-06-05T12:29:30;34.60;44.80
16999;DHT22;10211;49.476;11.010;2023-06-05T12:31:58;36.80;42.70
16999;DHT22;10211;49.476;11.010;2023-06-05T12:34:41;37.40;41.70
16999;DHT22;10211;49.476;11.010;2023-06-05T12:37:10;37.60;41.00
16999;DHT22;10211;49.476;11.010;2023-06-05T12:39:38;37.80;40.50
16999;DHT22;10211;49.476;11.010;2023-06-05T12:42:05;38.00;40.00
16999;DHT22;10211;49.476;11.010;2023-06-05T12:44:33;38.10;40.10
16999;DHT22;10211;49.476;11.010;2023-06-05T12:47:00;37.70;40.20
16999;DHT22;10211;49.476;11.010;2023-06-05T12:49:27;37.00;41.20
16999;DHT22;10211;49.476;11.010;2023-06-05T12:51:53;35.80;42.30
16999;DHT22;10211;49.476;11.010;2023-06-05T12:54:22;34.80;43.70
16999;DHT22;10211;49.476;11.010;2023-06-05T12:56:51;33.90;44.70
16999;DHT22;10211;49.476;11.010;2023-06-05T12:59:17;32.90;46.20
16999;DHT22;10211;49.476;11.010;2023-06-05T13:01:46;32.00;46.70
16999;DHT22;10211;49.476;11.010;2023-06-05T13:04:13;31.80;47.40
16999;DHT22;10211;49.476;11.010;2023-06-05T13:06:40;31.80;48.20
16999;DHT22;10211;49.476;11.010;2023-06-05T13:09:08;31.30;49.10
16999;DHT22;10211;49.476;11.010;2023-06-05T13:11:35;31.20;49.80
16999;DHT22;10211;49.476;11.010;2023-06-05T13:14:01;31.10;49.20
16999;DHT22;10211;49.476;11.010;2023-06-05T13:16:28;30.70;49.10
16999;DHT22;10211;49.476;11.010;2023-06-05T13:18:56;30.00;49.60
16999;DHT22;10211;49.476;11.010;2023-06-05T13:21:23;29.30;50.60
16999;DHT22;10211;49.476;11.010;2023-06-05T13:23:51;28.80;51.40
16999;DHT22;10211;49.476;11.010;2023-06-05T13:26:17;28.40;52.60
16999;DHT22;10211;49.476;11.010;2023-06-05T13:28:44;28.30;53.10
16999;DHT22;10211;49.476;11.010;2023-06-05T13:31:11;28.40;53.50
16999;DHT22;10211;49.476;11.010;2023-06-05T13:33:38;28.40;54.00
16999;DHT22;10211;49.476;11.010;2023-06-05T13:36:07;28.40;53.70
16999;DHT22;10211;49.476;11.010;2023-06-05T13:38:34;28.40;53.70
16999;DHT22;10211;49.476;11.010;2023-06-05T13:41:02;28.60;53.50
16999;DHT22;10211;49.476;11.010;2023-06-05T13:43:29;28.70;52.90
16999;DHT22;10211;49.476;11.010;2023-06-05T13:45:57;28.90;52.50
16999;DHT22;10211;49.476;11.010;2023-06-05T13:48:24;28.90;52.10
16999;DHT22;10211;49.476;11.010;2023-06-05T13:50:51;28.80;52.70
16999;DHT22;10211;49.476;11.010;2023-06-05T13:53:19;28.90;52.80
16999;DHT22;10211;49.476;11.010;2023-06-05T13:55:46;28.80;52.00
16999;DHT22;10211;49.476;11.010;2023-06-05T13:58:12;28.80;51.90
16999;DHT22;10211;49.476;11.010;2023-06-05T14:00:40;28.90;51.90
16999;DHT22;10211;49.476;11.010;2023-06-05T14:03:07;28.80;51.40
16999;DHT22;10211;49.476;11.010;2023-06-05T14:05:33;28.60;51.00
16999;DHT22;10211;49.476;11.010;2023-06-05T14:08:00;28.60;51.70
16999;DHT22;10211;49.476;11.010;2023-06-05T14:10:28;28.70;52.30
16999;DHT22;10211;49.476;11.010;2023-06-05T14:12:56;28.70;52.80
16999;DHT22;10211;49.476;11.010;2023-06-05T14:15:23;28.80;53.30
16999;DHT22;10211;49.476;11.010;2023-06-05T14:17:50;28.80;52.80
16999;DHT22;10211;49.476;11.010;2023-06-05T14:20:19;28.90;52.80
16999;DHT22;10211;49.476;11.010;2023-06-05T14:22:46;29.10;52.80
16999;DHT22;10211;49.476;11.010;2023-06-05T14:25:12;29.30;53.10
16999;DHT22;10211;49.476;11.010;2023-06-05T14:27:41;29.40;53.30
16999;DHT22;10211;49.476;11.010;2023-06-05T14:30:08;29.60;53.40
16999;DHT22;10211;49.476;11.010;2023-06-05T14:32:35;29.40;52.60
16999;DHT22;10211;49.476;11.010;2023-06-05T14:35:02;28.80;53.50
16999;DHT22;10211;49.476;11.010;2023-06-05T14:37:29;28.20;53.80
16999;DHT22;10211;49.476;11.010;2023-06-05T14:39:56;27.90;55.00
16999;DHT22;10211;49.476;11.010;2023-06-05T14:42:23;27.60;55.50
16999;DHT22;10211;49.476;11.010;2023-06-05T14:44:51;27.40;55.30
16999;DHT22;10211;49.476;11.010;2023-06-05T14:47:18;27.40;55.30
16999;DHT22;10211;49.476;11.010;2023-06-05T14:49:44;27.60;55.00
16999;DHT22;10211;49.476;11.010;2023-06-05T14:52:11;27.90;55.10
16999;DHT22;10211;49.476;11.010;2023-06-05T14:54:38;28.30;54.40
16999;DHT22;10211;49.476;11.010;2023-06-05T14:57:05;28.50;54.80
16999;DHT22;10211;49.476;11.010;2023-06-05T14:59:32;28.80;54.20
16999;DHT22;10211;49.476;11.010;2023-06-05T15:02:00;28.90;53.60
16999;DHT22;10211;49.476;11.010;2023-06-05T15:04:27;28.60;52.90
16999;DHT22;10211;49.476;11.010;2023-06-05T15:06:54;28.50;52.80
16999;DHT22;10211;49.476;11.010;2023-06-05T15:09:21;28.60;52.90
16999;DHT22;10211;49.476;11.010;2023-06-05T15:11:48;28.70;53.10
16999;DHT22;10211;49.476;11.010;2023-06-05T15:14:16;28.60;52.80
16999;DHT22;10211;49.476;11.010;2023-06-05T15:16:43;28.70;52.40
16999;DHT22;10211;49.476;11.010;2023-06-05T15:19:11;28.70;52.80
16999;DHT22;10211;49.476;11.010;2023-06-05T15:21:38;28.70;53.60
16999;DHT22;10211;49.476;11.010;2023-06-05T15:24:05;28.80;52.90